Tyringham, Massachusetts
Current Conditions -  °F | °C
As of 12:54 AM on Saturday 20 Dec 2014 (Local Time) from KPSF Reporting Station
Overcast Overcast  
Wind Chill: 13°   Ceiling: 1800
Heat Index: 23°   Visibility: 10mi
Dew Point: 17°   Wind: 9mph
Humidity: 78%   Direction: 340°NNW
Pressure: 30.12"   Gusts: 18mph
Location:  42.25°N, 73.2°W
Report Text: KPSF 200554Z AUTO 34008G16KT 10SM OVC018 M05/M08 A3012 RMK AO2 SLP216 T10501083 11044 21050 53011
Loading
Personal Weather Stations






























Interactive Weather Map New forecast layout! Learn more

10-Day Weather Forecast

Advertisements
Track Severe Weather on mobile